Time;durP1;ratioP1;P1;durP2;ratioP2;P2;SDS_P1;SDS_P2;PMS_P1;PMS_P2;Temp;Humidity;BMP_temperature;BMP_pressure;BME280_temperature;BME280_humidity;BME280_pressure;Samples;Min_cycle;Max_cycle;Signal;HPM_P1;HPM_P2
2022/09/10 00:00:55;;;;;;;4.82;3.60;;;;;;;;;;2032791;29;20032;-94
2022/09/10 00:01:55;;;;;;;5.57;3.38;;;;;;;;;;2032738;29;20042;-92
2022/09/10 00:02:56;;;;;;;3.60;3.30;;;;;;;;;;2017367;29;20082;-94
2022/09/10 00:03:57;;;;;;;3.70;3.00;;;;;;;;;;2009792;29;20025;-95
2022/09/10 00:05:01;;;;;;;6.00;3.70;;;;;;;;;;2009776;29;20120;-93
2022/09/10 00:06:03;;;;;;;5.93;3.83;;;;;;;;;;2009804;29;20048;-93
2022/09/10 00:07:03;;;;;;;4.60;3.78;;;;;;;;;;2017598;29;20163;-93
2022/09/10 00:08:05;;;;;;;4.30;3.58;;;;;;;;;;2018404;29;20036;-92
2022/09/10 00:09:06;;;;;;;4.07;3.60;;;;;;;;;;2018537;29;20497;-92
2022/09/10 00:10:07;;;;;;;6.00;3.78;;;;;;;;;;2010309;29;20030;-92
2022/09/10 00:11:09;;;;;;;5.18;3.17;;;;;;;;;;2010061;29;20442;-94
2022/09/10 00:12:10;;;;;;;6.10;3.80;;;;;;;;;;2009975;29;20480;-92
2022/09/10 00:13:11;;;;;;;7.78;3.45;;;;;;;;;;2017592;29;20033;-93
2022/09/10 00:14:19;;;;;;;4.10;3.70;;;;;;;;;;2025017;29;20055;-93
2022/09/10 00:15:19;;;;;;;3.58;3.15;;;;;;;;;;2010848;29;20529;-92
2022/09/10 00:16:20;;;;;;;5.20;3.40;;;;;;;;;;2009731;29;20067;-93
2022/09/10 00:17:21;;;;;;;5.75;3.83;;;;;;;;;;2009730;29;20192;-94
2022/09/10 00:18:21;;;;;;;4.20;3.47;;;;;;;;;;2017392;29;20035;-93
2022/09/10 00:19:22;;;;;;;4.72;3.53;;;;;;;;;;2025443;29;20041;-92
2022/09/10 00:20:23;;;;;;;4.88;3.92;;;;;;;;;;2010898;29;20049;-93
2022/09/10 00:21:23;;;;;;;4.85;3.90;;;;;;;;;;2018945;29;20199;-91
2022/09/10 00:22:24;;;;;;;6.50;4.00;;;;;;;;;;2011960;29;20109;-91
2022/09/10 00:23:28;;;;;;;4.72;3.60;;;;;;;;;;2017857;29;20032;-93
2022/09/10 00:24:28;;;;;;;4.95;3.70;;;;;;;;;;2017306;29;20025;-95
2022/09/10 00:25:31;;;;;;;4.85;3.70;;;;;;;;;;2009862;29;20029;-95
2022/09/10 00:26:36;;;;;;;3.65;3.20;;;;;;;;;;2025111;29;20035;-94
2022/09/10 00:27:37;;;;;;;5.18;3.85;;;;;;;;;;2024175;29;20092;-94
2022/09/10 00:28:38;;;;;;;5.88;4.53;;;;;;;;;;2009631;29;20105;-94
2022/09/10 00:29:38;;;;;;;4.40;3.65;;;;;;;;;;2009476;29;20093;-94
2022/09/10 00:30:40;;;;;;;7.65;3.88;;;;;;;;;;2009657;29;20477;-95
2022/09/10 00:31:41;;;;;;;3.85;3.25;;;;;;;;;;2009679;29;20026;-95
2022/09/10 00:32:41;;;;;;;4.07;3.67;;;;;;;;;;2009598;29;20052;-95
2022/09/10 00:33:42;;;;;;;6.15;3.83;;;;;;;;;;2009685;29;20050;-94
2022/09/10 00:34:42;;;;;;;4.43;3.60;;;;;;;;;;2017349;29;20526;-94
2022/09/10 00:35:44;;;;;;;5.85;3.78;;;;;;;;;;2017437;29;20017;-93
2022/09/10 00:36:45;;;;;;;6.47;4.03;;;;;;;;;;2025008;29;20016;-94
2022/09/10 00:37:46;;;;;;;5.28;3.28;;;;;;;;;;2009826;29;20432;-94
2022/09/10 00:38:47;;;;;;;4.13;3.28;;;;;;;;;;2009751;29;20022;-94
2022/09/10 00:39:48;;;;;;;6.22;3.70;;;;;;;;;;2009565;29;20022;-93
2022/09/10 00:40:48;;;;;;;4.72;3.45;;;;;;;;;;2024996;29;20026;-93
2022/09/10 00:41:51;;;;;;;6.57;3.40;;;;;;;;;;2032794;29;20054;-93
2022/09/10 00:42:51;;;;;;;4.40;3.30;;;;;;;;;;2024686;29;20040;-94
2022/09/10 00:43:55;;;;;;;5.78;3.35;;;;;;;;;;2009338;29;20388;-94
2022/09/10 00:44:59;;;;;;;4.07;3.10;;;;;;;;;;2017148;29;20040;-93
2022/09/10 00:45:59;;;;;;;4.35;3.30;;;;;;;;;;2010086;29;20413;-93
2022/09/10 00:47:00;;;;;;;4.63;3.75;;;;;;;;;;2009426;29;20041;-94
2022/09/10 00:48:05;;;;;;;5.50;3.05;;;;;;;;;;2009238;29;20086;-93
2022/09/10 00:49:13;;;;;;;4.10;2.60;;;;;;;;;;2010255;29;20036;-95
2022/09/10 00:50:25;;;;;;;3.63;2.90;;;;;;;;;;2010456;29;20053;-94
2022/09/10 00:51:29;;;;;;;4.20;3.30;;;;;;;;;;2011048;29;20026;-94
2022/09/10 00:52:31;;;;;;;5.95;3.08;;;;;;;;;;2012434;29;20082;-93
2022/09/10 00:53:32;;;;;;;3.30;2.80;;;;;;;;;;2011716;29;20101;-94
2022/09/10 00:54:35;;;;;;;4.25;2.70;;;;;;;;;;2017483;29;20083;-91
2022/09/10 00:55:41;;;;;;;3.90;2.80;;;;;;;;;;2018117;29;20060;-94
2022/09/10 00:56:42;;;;;;;4.55;3.03;;;;;;;;;;2018872;29;20029;-94
2022/09/10 00:57:46;;;;;;;3.75;2.92;;;;;;;;;;2018487;29;20025;-93
2022/09/10 00:58:48;;;;;;;4.78;3.08;;;;;;;;;;2020533;29;20123;-94
2022/09/10 00:59:52;;;;;;;5.25;3.10;;;;;;;;;;2017425;29;20025;-94
2022/09/10 01:00:58;;;;;;;4.95;2.53;;;;;;;;;;2010081;29;20055;-93
2022/09/10 01:02:00;;;;;;;5.65;3.00;;;;;;;;;;2010303;29;20489;-93
2022/09/10 01:03:01;;;;;;;4.10;2.72;;;;;;;;;;2009559;29;20173;-93
2022/09/10 01:04:05;;;;;;;4.72;2.95;;;;;;;;;;2009515;29;20030;-93
2022/09/10 01:05:08;;;;;;;4.78;3.15;;;;;;;;;;2024927;29;20037;-93
2022/09/10 01:06:09;;;;;;;3.13;2.55;;;;;;;;;;2032728;29;20035;-93
2022/09/10 01:07:11;;;;;;;3.42;3.08;;;;;;;;;;2024664;29;20517;-93
2022/09/10 01:08:14;;;;;;;4.20;2.85;;;;;;;;;;2024947;29;20039;-92
2022/09/10 01:09:14;;;;;;;4.40;2.75;;;;;;;;;;2024616;29;20554;-92
2022/09/10 01:10:28;;;;;;;3.75;2.45;;;;;;;;;;2017780;29;20029;-93
2022/09/10 01:11:37;;;;;;;3.45;2.72;;;;;;;;;;2027242;29;20017;-90
2022/09/10 01:12:51;;;;;;;6.13;2.65;;;;;;;;;;2027154;29;20065;-92
2022/09/10 01:14:28;;;;;;;4.10;2.80;;;;;;;;;;2026965;29;20515;-92
2022/09/10 01:15:40;;;;;;;4.50;2.70;;;;;;;;;;2001500;29;20056;-92
2022/09/10 01:16:58;;;;;;;4.88;3.03;;;;;;;;;;2009488;29;20033;-94
2022/09/10 01:18:07;;;;;;;3.40;2.63;;;;;;;;;;2027671;29;20076;-93
2022/09/10 01:19:27;;;;;;;7.10;3.08;;;;;;;;;;2033184;29;20039;-94
2022/09/10 01:20:52;;;;;;;4.65;3.33;;;;;;;;;;2034170;29;20069;-92
2022/09/10 01:22:10;;;;;;;5.72;3.22;;;;;;;;;;2023261;29;20048;-92
2022/09/10 01:23:13;;;;;;;4.22;3.13;;;;;;;;;;2013063;29;20120;-94
2022/09/10 01:24:34;;;;;;;7.85;3.67;;;;;;;;;;2026499;29;20172;-94
2022/09/10 01:25:49;;;;;;;;;;;;;;;;;;2024066;29;20155;-92
2022/09/10 01:27:11;;;;;;;7.28;2.90;;;;;;;;;;2028400;29;19911;-95
2022/09/10 01:28:45;;;;;;;4.45;3.10;;;;;;;;;;2023696;29;20040;-92
2022/09/10 01:30:02;;;;;;;2.83;2.62;;;;;;;;;;1673654;29;10256535;-93
2022/09/10 01:31:14;;;;;;;3.55;3.00;;;;;;;;;;2018534;29;20447;-93
2022/09/10 01:32:31;;;;;;;4.47;3.42;;;;;;;;;;2012268;29;20040;-93
2022/09/10 01:33:37;;;;;;;4.20;2.80;;;;;;;;;;2018585;29;20036;-93
2022/09/10 01:34:53;;;;;;;6.65;3.53;;;;;;;;;;2011418;29;20082;-93
2022/09/10 01:36:00;;;;;;;5.68;3.58;;;;;;;;;;2020683;29;20477;-92
2022/09/10 01:37:07;;;;;;;3.95;2.70;;;;;;;;;;2026688;29;20028;-93
2022/09/10 01:38:19;;;;;;;4.07;3.30;;;;;;;;;;2018490;29;20393;-93
2022/09/10 01:39:22;;;;;;;5.50;3.40;;;;;;;;;;2012216;29;20041;-93
2022/09/10 01:40:28;;;;;;;3.38;3.08;;;;;;;;;;2011527;29;20055;-93
2022/09/10 01:41:29;;;;;;;3.80;3.20;;;;;;;;;;2011901;29;20068;-93
2022/09/10 01:42:30;;;;;;;3.53;3.20;;;;;;;;;;2023448;29;20064;-94
2022/09/10 01:43:32;;;;;;;4.63;3.28;;;;;;;;;;2017559;29;20086;-91
2022/09/10 01:44:46;;;;;;;4.10;3.20;;;;;;;;;;2015250;29;20029;-93
2022/09/10 01:45:53;;;;;;;4.43;3.08;;;;;;;;;;1667293;29;10294994;-93
2022/09/10 01:47:03;;;;;;;3.85;2.95;;;;;;;;;;2017930;29;20066;-91
2022/09/10 01:48:09;;;;;;;4.50;3.53;;;;;;;;;;2011782;29;20045;-92
2022/09/10 01:49:41;;;;;;;3.75;3.10;;;;;;;;;;2010610;29;20068;-92
2022/09/10 01:50:56;;;;;;;4.82;3.80;;;;;;;;;;2018453;29;20044;-92
2022/09/10 01:52:17;;;;;;;5.45;3.40;;;;;;;;;;2018026;29;20049;-92
2022/09/10 01:53:30;;;;;;;6.53;3.22;;;;;;;;;;2020296;29;20496;-93
2022/09/10 01:55:08;;;;;;;5.03;3.38;;;;;;;;;;2025837;29;20036;-92
2022/09/10 01:56:37;;;;;;;5.10;3.20;;;;;;;;;;2025516;29;20065;-91
2022/09/10 01:57:54;;;;;;;4.05;2.92;;;;;;;;;;2034208;29;20336;-92
2022/09/10 01:59:02;;;;;;;5.03;3.63;;;;;;;;;;2025003;29;20036;-91
2022/09/10 02:00:12;;;;;;;3.92;3.53;;;;;;;;;;2011652;29;20296;-93
2022/09/10 02:01:37;;;;;;;5.72;3.88;;;;;;;;;;2011177;29;20117;-92
2022/09/10 02:02:54;;;;;;;5.28;3.70;;;;;;;;;;2013656;29;20025;-92
2022/09/10 02:04:00;;;;;;;4.65;3.28;;;;;;;;;;2017843;29;20128;-92
2022/09/10 02:05:03;;;;;;;6.80;3.20;;;;;;;;;;2010989;29;20120;-92
2022/09/10 02:06:08;;;;;;;7.85;3.78;;;;;;;;;;2010562;29;20029;-91
2022/09/10 02:07:09;;;;;;;5.03;3.45;;;;;;;;;;2018002;29;20056;-93
2022/09/10 02:08:15;;;;;;;5.78;4.10;;;;;;;;;;2018535;29;20091;-93
2022/09/10 02:09:17;;;;;;;7.35;4.47;;;;;;;;;;2018089;29;20133;-93
2022/09/10 02:10:18;;;;;;;4.60;3.55;;;;;;;;;;2018036;29;20037;-93
2022/09/10 02:11:20;;;;;;;5.93;3.78;;;;;;;;;;2018190;29;20401;-95
2022/09/10 02:12:21;;;;;;;7.47;3.58;;;;;;;;;;2025831;29;20028;-94
2022/09/10 02:13:22;;;;;;;6.15;3.90;;;;;;;;;;2010657;29;20532;-93
2022/09/10 02:14:23;;;;;;;7.85;4.03;;;;;;;;;;2012553;29;20037;-93
2022/09/10 02:15:27;;;;;;;6.10;4.55;;;;;;;;;;2010537;29;20029;-93
2022/09/10 02:16:32;;;;;;;5.30;4.38;;;;;;;;;;2011151;29;20411;-93
2022/09/10 02:17:36;;;;;;;5.15;3.78;;;;;;;;;;2018895;29;20116;-94
2022/09/10 02:18:37;;;;;;;5.53;4.45;;;;;;;;;;2026028;29;20064;-93
2022/09/10 02:19:38;;;;;;;5.05;3.92;;;;;;;;;;2033521;29;20048;-93
2022/09/10 02:20:39;;;;;;;7.25;4.38;;;;;;;;;;2036096;29;20085;-92
2022/09/10 02:21:40;;;;;;;5.15;4.65;;;;;;;;;;2028213;29;20033;-93
2022/09/10 02:22:48;;;;;;;6.35;4.50;;;;;;;;;;2021924;29;20033;-93
2022/09/10 02:23:56;;;;;;;6.28;4.75;;;;;;;;;;2026860;29;20624;-94
2022/09/10 02:24:56;;;;;;;5.70;4.93;;;;;;;;;;2024879;29;20029;-94
2022/09/10 02:25:57;;;;;;;6.40;5.20;;;;;;;;;;1679081;29;10001257;-94
2022/09/10 02:26:59;;;;;;;8.68;5.30;;;;;;;;;;2018079;29;20492;-93
2022/09/10 02:28:00;;;;;;;7.40;4.90;;;;;;;;;;2012710;29;20033;-94
2022/09/10 02:29:00;;;;;;;5.82;4.80;;;;;;;;;;2010425;29;20057;-93
2022/09/10 02:30:01;;;;;;;7.38;5.05;;;;;;;;;;1661631;29;10391793;-94
2022/09/10 02:31:01;;;;;;;9.55;4.90;;;;;;;;;;2018122;29;20102;-93
2022/09/10 02:32:03;;;;;;;6.53;4.45;;;;;;;;;;2017988;29;20084;-93
2022/09/10 02:33:03;;;;;;;6.85;4.80;;;;;;;;;;2010478;29;20049;-93
2022/09/10 02:34:04;;;;;;;9.10;5.18;;;;;;;;;;2010289;29;20029;-93
2022/09/10 02:35:05;;;;;;;7.35;4.95;;;;;;;;;;2010027;29;20053;-93
2022/09/10 02:36:05;;;;;;;5.93;5.13;;;;;;;;;;2009317;29;20037;-93
2022/09/10 02:37:06;;;;;;;6.97;5.40;;;;;;;;;;2010795;29;20030;-93
2022/09/10 02:38:07;;;;;;;4.95;4.45;;;;;;;;;;2025407;29;20475;-93
2022/09/10 02:39:09;;;;;;;6.30;5.15;;;;;;;;;;2033428;29;20024;-93
2022/09/10 02:40:11;;;;;;;6.40;5.10;;;;;;;;;;2027733;29;20085;-93
2022/09/10 02:41:12;;;;;;;6.70;5.00;;;;;;;;;;2027904;29;20040;-93
2022/09/10 02:42:15;;;;;;;5.72;4.47;;;;;;;;;;2028059;29;20092;-93
2022/09/10 02:43:16;;;;;;;7.60;5.07;;;;;;;;;;2018168;29;20036;-93
2022/09/10 02:44:16;;;;;;;5.82;4.78;;;;;;;;;;2018388;29;20039;-94
2022/09/10 02:45:17;;;;;;;5.93;5.30;;;;;;;;;;2017871;29;20171;-93
2022/09/10 02:46:17;;;;;;;6.22;4.72;;;;;;;;;;2018026;29;20124;-94
2022/09/10 02:47:18;;;;;;;5.50;4.88;;;;;;;;;;2017810;29;20057;-93
2022/09/10 02:48:19;;;;;;;7.75;4.93;;;;;;;;;;2026098;29;20060;-93
2022/09/10 02:49:20;;;;;;;7.75;4.80;;;;;;;;;;2017903;29;20037;-94
2022/09/10 02:50:22;;;;;;;6.35;5.05;;;;;;;;;;2017986;29;20036;-93
2022/09/10 02:51:23;;;;;;;6.72;5.80;;;;;;;;;;2017950;29;20025;-92
2022/09/10 02:52:24;;;;;;;6.57;4.63;;;;;;;;;;2018811;29;20476;-92
2022/09/10 02:53:25;;;;;;;5.22;4.40;;;;;;;;;;2027200;29;20029;-92
2022/09/10 02:54:25;;;;;;;5.47;4.63;;;;;;;;;;2027019;29;20107;-92
2022/09/10 02:55:26;;;;;;;5.85;4.97;;;;;;;;;;2017543;29;20144;-92
2022/09/10 02:56:27;;;;;;;8.88;5.25;;;;;;;;;;2010189;29;20036;-93
2022/09/10 02:57:27;;;;;;;5.72;4.82;;;;;;;;;;2017446;29;20045;-93
2022/09/10 02:58:30;;;;;;;5.78;4.55;;;;;;;;;;2025187;29;20029;-92
2022/09/10 02:59:31;;;;;;;5.65;5.03;;;;;;;;;;2025168;29;20433;-94
2022/09/10 03:00:32;;;;;;;4.82;4.30;;;;;;;;;;2009979;29;20060;-93
2022/09/10 03:01:33;;;;;;;8.60;4.95;;;;;;;;;;2010166;29;20116;-93
2022/09/10 03:02:34;;;;;;;5.47;4.60;;;;;;;;;;2010127;29;20097;-94
2022/09/10 03:03:38;;;;;;;7.70;4.88;;;;;;;;;;2018623;29;20053;-94
2022/09/10 03:04:40;;;;;;;9.00;5.07;;;;;;;;;;1722795;29;10771291;-92
2022/09/10 03:05:40;;;;;;;6.35;4.93;;;;;;;;;;2017978;29;20311;-93
2022/09/10 03:06:42;;;;;;;5.28;4.78;;;;;;;;;;2018606;29;20093;-93
2022/09/10 03:07:45;;;;;;;6.18;4.60;;;;;;;;;;2009828;29;20417;-94
2022/09/10 03:08:47;;;;;;;6.95;4.60;;;;;;;;;;2008964;29;20045;-89
2022/09/10 03:09:49;;;;;;;5.70;4.63;;;;;;;;;;2016577;29;20121;-89
2022/09/10 03:10:50;;;;;;;6.68;4.55;;;;;;;;;;2024833;29;20021;-88
2022/09/10 03:11:51;;;;;;;6.07;4.63;;;;;;;;;;2016043;29;20032;-89
2022/09/10 03:12:52;;;;;;;6.57;5.22;;;;;;;;;;2016291;29;20025;-88
2022/09/10 03:13:53;;;;;;;5.13;4.25;;;;;;;;;;2016290;29;20148;-89
2022/09/10 03:14:53;;;;;;;6.55;4.38;;;;;;;;;;2016317;29;20536;-88
2022/09/10 03:15:54;;;;;;;4.70;4.30;;;;;;;;;;2024628;29;20039;-89
2022/09/10 03:16:57;;;;;;;5.63;4.65;;;;;;;;;;2024688;29;20032;-89
2022/09/10 03:17:57;;;;;;;6.13;5.30;;;;;;;;;;2024652;29;20083;-88
2022/09/10 03:18:59;;;;;;;6.53;4.88;;;;;;;;;;2016209;29;20128;-88
2022/09/10 03:19:59;;;;;;;6.50;4.60;;;;;;;;;;2016468;29;20064;-87
2022/09/10 03:21:11;;;;;;;6.50;5.85;;;;;;;;;;2024567;29;20028;-88
2022/09/10 03:22:12;;;;;;;8.57;4.47;;;;;;;;;;2027022;29;20032;-86
2022/09/10 03:23:12;;;;;;;9.20;5.00;;;;;;;;;;2024344;29;20032;-87
2022/09/10 03:24:14;;;;;;;9.52;4.78;;;;;;;;;;2024443;29;20042;-88
2022/09/10 03:25:14;;;;;;;6.60;4.75;;;;;;;;;;2024291;29;20241;-88
2022/09/10 03:26:17;;;;;;;7.43;4.70;;;;;;;;;;2024540;29;20040;-88
2022/09/10 03:27:17;;;;;;;8.68;4.88;;;;;;;;;;2016090;29;20213;-88
2022/09/10 03:28:18;;;;;;;7.60;4.78;;;;;;;;;;2016086;29;20476;-88
2022/09/10 03:29:19;;;;;;;7.30;4.93;;;;;;;;;;2031331;29;20062;-88
2022/09/10 03:30:20;;;;;;;5.07;4.10;;;;;;;;;;2031561;29;20038;-88
2022/09/10 03:31:21;;;;;;;7.45;4.88;;;;;;;;;;2024488;29;20036;-88
2022/09/10 03:32:21;;;;;;;7.57;4.85;;;;;;;;;;2024387;29;20044;-88
2022/09/10 03:33:22;;;;;;;9.18;4.30;;;;;;;;;;2024623;29;20052;-88
2022/09/10 03:34:23;;;;;;;7.85;4.70;;;;;;;;;;2025497;29;20067;-87
2022/09/10 03:35:23;;;;;;;7.38;4.13;;;;;;;;;;2016590;29;20033;-87
2022/09/10 03:36:34;;;;;;;6.15;4.07;;;;;;;;;;1690183;29;10001071;-88
2022/09/10 03:37:35;;;;;;;10.02;4.68;;;;;;;;;;1681159;29;10000953;-89
2022/09/10 03:38:35;;;;;;;5.28;3.90;;;;;;;;;;2015861;29;20032;-89
2022/09/10 03:39:35;;;;;;;6.82;3.83;;;;;;;;;;1665752;29;10413737;-88
2022/09/10 03:40:36;;;;;;;6.57;5.00;;;;;;;;;;2015127;29;20568;-88
2022/09/10 03:41:36;;;;;;;5.70;4.50;;;;;;;;;;2015893;29;20465;-88
2022/09/10 03:42:37;;;;;;;6.53;4.47;;;;;;;;;;2024130;29;20072;-87
2022/09/10 03:43:37;;;;;;;5.03;3.83;;;;;;;;;;2024261;29;20511;-87
2022/09/10 03:44:38;;;;;;;6.13;4.50;;;;;;;;;;2015606;29;20021;-86
2022/09/10 03:45:38;;;;;;;7.75;4.82;;;;;;;;;;2008232;29;20041;-87
2022/09/10 03:46:40;;;;;;;5.78;4.55;;;;;;;;;;2015772;29;20033;-87
2022/09/10 03:47:40;;;;;;;8.82;5.28;;;;;;;;;;2015867;29;20025;-87
2022/09/10 03:48:42;;;;;;;6.97;4.50;;;;;;;;;;2015735;29;20060;-88
2022/09/10 03:49:43;;;;;;;6.00;4.75;;;;;;;;;;2024091;29;20087;-88
2022/09/10 03:50:44;;;;;;;6.90;5.30;;;;;;;;;;2015593;29;20097;-88
2022/09/10 03:51:44;;;;;;;7.95;4.85;;;;;;;;;;2015890;29;20072;-88
2022/09/10 03:52:45;;;;;;;5.80;4.88;;;;;;;;;;2024299;29;20104;-89
2022/09/10 03:53:46;;;;;;;7.57;5.30;;;;;;;;;;2015763;29;20032;-88
2022/09/10 03:54:46;;;;;;;6.82;4.47;;;;;;;;;;2015751;29;20033;-88
2022/09/10 03:55:48;;;;;;;7.03;4.80;;;;;;;;;;2015783;29;20037;-88
2022/09/10 03:56:49;;;;;;;6.40;4.70;;;;;;;;;;2015990;29;20028;-89
2022/09/10 03:57:50;;;;;;;7.38;4.70;;;;;;;;;;2024217;29;20028;-89
2022/09/10 03:58:50;;;;;;;8.32;4.65;;;;;;;;;;2024141;29;20186;-89
2022/09/10 03:59:51;;;;;;;8.52;4.63;;;;;;;;;;2015532;29;20033;-89
2022/09/10 04:00:51;;;;;;;5.38;4.18;;;;;;;;;;2007789;29;20082;-89
2022/09/10 04:01:52;;;;;;;6.32;4.85;;;;;;;;;;2015733;29;20032;-89
2022/09/10 04:02:52;;;;;;;5.03;4.35;;;;;;;;;;2030979;29;20090;-88
2022/09/10 04:03:55;;;;;;;5.68;4.97;;;;;;;;;;2031210;29;20031;-88
2022/09/10 04:04:55;;;;;;;10.13;4.78;;;;;;;;;;2024272;29;20031;-89
2022/09/10 04:05:57;;;;;;;6.65;5.25;;;;;;;;;;2024108;29;20127;-89
2022/09/10 04:06:57;;;;;;;7.55;5.07;;;;;;;;;;2024181;29;20033;-89
2022/09/10 04:07:58;;;;;;;6.25;4.75;;;;;;;;;;2015571;29;20073;-89
2022/09/10 04:09:00;;;;;;;6.65;4.93;;;;;;;;;;2015889;29;20489;-88
2022/09/10 04:10:00;;;;;;;6.65;4.88;;;;;;;;;;2015516;29;20435;-88
2022/09/10 04:11:02;;;;;;;7.40;5.10;;;;;;;;;;2015611;29;20096;-87
2022/09/10 04:12:02;;;;;;;6.32;4.50;;;;;;;;;;2023932;29;20034;-89
2022/09/10 04:13:03;;;;;;;5.43;4.90;;;;;;;;;;2023400;29;20063;-89
2022/09/10 04:14:04;;;;;;;5.57;4.53;;;;;;;;;;2025616;29;20036;-88
2022/09/10 04:15:05;;;;;;;6.88;4.70;;;;;;;;;;2027842;29;20020;-88
2022/09/10 04:16:05;;;;;;;8.00;5.22;;;;;;;;;;2027478;29;20032;-87
2022/09/10 04:17:06;;;;;;;7.75;5.47;;;;;;;;;;2034914;29;20119;-87
2022/09/10 04:18:07;;;;;;;6.88;4.78;;;;;;;;;;2032083;29;20028;-88
2022/09/10 04:19:07;;;;;;;8.20;5.18;;;;;;;;;;2016233;29;20101;-88
2022/09/10 04:20:08;;;;;;;8.93;5.28;;;;;;;;;;2008209;29;20044;-88
2022/09/10 04:21:08;;;;;;;5.57;4.78;;;;;;;;;;2008277;29;20200;-87
2022/09/10 04:22:09;;;;;;;5.45;4.60;;;;;;;;;;2015767;29;20029;-88
2022/09/10 04:23:09;;;;;;;7.55;4.80;;;;;;;;;;1685629;29;10002367;-89
2022/09/10 04:24:11;;;;;;;6.55;4.88;;;;;;;;;;2023232;29;20131;-89
2022/09/10 04:25:13;;;;;;;7.72;4.72;;;;;;;;;;1683752;29;10001771;-88
2022/09/10 04:26:16;;;;;;;9.18;5.10;;;;;;;;;;2030989;29;20028;-88
2022/09/10 04:27:16;;;;;;;9.05;4.90;;;;;;;;;;2025278;29;20036;-88
2022/09/10 04:28:17;;;;;;;5.70;4.63;;;;;;;;;;2015417;29;20474;-88
2022/09/10 04:29:17;;;;;;;6.85;5.15;;;;;;;;;;2015847;29;20032;-88
2022/09/10 04:30:18;;;;;;;7.05;5.57;;;;;;;;;;2027485;29;20126;-88
2022/09/10 04:31:19;;;;;;;6.43;4.82;;;;;;;;;;2020211;29;20033;-89
2022/09/10 04:32:19;;;;;;;7.57;4.30;;;;;;;;;;2020102;29;20085;-88
2022/09/10 04:33:19;;;;;;;7.15;4.70;;;;;;;;;;2018066;29;20116;-88
2022/09/10 04:34:23;;;;;;;7.30;4.82;;;;;;;;;;2008487;29;20044;-88
2022/09/10 04:35:24;;;;;;;5.25;4.25;;;;;;;;;;2008613;29;20093;-89
2022/09/10 04:36:25;;;;;;;9.30;4.90;;;;;;;;;;2008425;29;20041;-88
2022/09/10 04:37:26;;;;;;;6.97;4.85;;;;;;;;;;2023514;29;20056;-88
2022/09/10 04:38:31;;;;;;;5.65;4.22;;;;;;;;;;2030908;29;20036;-88
2022/09/10 04:39:31;;;;;;;5.88;3.95;;;;;;;;;;2023844;29;20036;-88
2022/09/10 04:40:33;;;;;;;4.68;4.13;;;;;;;;;;2023988;29;20494;-88
2022/09/10 04:41:33;;;;;;;6.95;4.40;;;;;;;;;;2023969;29;20143;-89
2022/09/10 04:42:34;;;;;;;6.25;4.35;;;;;;;;;;2023912;29;20473;-88
2022/09/10 04:43:35;;;;;;;5.20;3.85;;;;;;;;;;2023895;29;20410;-89
2022/09/10 04:44:36;;;;;;;4.82;3.75;;;;;;;;;;2023937;29;20035;-88
2022/09/10 04:45:36;;;;;;;6.28;4.20;;;;;;;;;;1671998;29;10397084;-88
2022/09/10 04:46:36;;;;;;;5.30;3.65;;;;;;;;;;2023245;29;20184;-87
2022/09/10 04:47:37;;;;;;;3.83;3.42;;;;;;;;;;2024210;29;20099;-87
2022/09/10 04:48:37;;;;;;;3.90;3.45;;;;;;;;;;2024219;29;20467;-88
2022/09/10 04:49:38;;;;;;;4.15;3.75;;;;;;;;;;2015826;29;20060;-84
2022/09/10 04:50:39;;;;;;;8.80;4.00;;;;;;;;;;1665922;29;10211044;-86
2022/09/10 04:51:39;;;;;;;3.92;3.28;;;;;;;;;;2015526;29;20094;-87
2022/09/10 04:52:42;;;;;;;5.15;3.50;;;;;;;;;;2031053;29;20035;-87
2022/09/10 04:53:43;;;;;;;5.60;3.10;;;;;;;;;;2030834;29;20039;-87
2022/09/10 04:54:44;;;;;;;7.35;3.17;;;;;;;;;;2015314;29;20514;-87
2022/09/10 04:55:46;;;;;;;7.35;3.67;;;;;;;;;;2015355;29;20033;-87
2022/09/10 04:56:46;;;;;;;3.85;3.13;;;;;;;;;;2023142;29;20071;-87
2022/09/10 04:57:47;;;;;;;5.35;3.42;;;;;;;;;;2015405;29;20021;-88
2022/09/10 04:58:47;;;;;;;5.78;3.20;;;;;;;;;;2023010;29;20464;-86
2022/09/10 04:59:48;;;;;;;4.88;3.55;;;;;;;;;;2030754;29;20467;-87
2022/09/10 05:00:48;;;;;;;4.07;3.47;;;;;;;;;;2023642;29;20032;-87
2022/09/10 05:01:49;;;;;;;7.13;3.65;;;;;;;;;;2015288;29;20036;-87
2022/09/10 05:02:49;;;;;;;4.07;3.50;;;;;;;;;;2007671;29;20488;-87
2022/09/10 05:03:50;;;;;;;12.40;3.47;;;;;;;;;;2015377;29;20029;-87
2022/09/10 05:04:50;;;;;;;9.65;4.78;;;;;;;;;;2023592;29;20476;-87
2022/09/10 05:05:50;;;;;;;4.95;3.90;;;;;;;;;;2015166;29;20399;-87
2022/09/10 05:06:52;;;;;;;12.88;4.55;;;;;;;;;;2015457;29;20106;-89
2022/09/10 05:07:52;;;;;;;4.30;3.42;;;;;;;;;;2023700;29;20035;-87
2022/09/10 05:08:53;;;;;;;9.80;4.90;;;;;;;;;;2015549;29;20032;-88
2022/09/10 05:09:54;;;;;;;4.10;3.45;;;;;;;;;;2015561;29;20116;-87
2022/09/10 05:10:54;;;;;;;3.88;3.47;;;;;;;;;;2024299;29;20031;-89
2022/09/10 05:11:54;;;;;;;8.00;3.40;;;;;;;;;;2024624;29;20084;-89
2022/09/10 05:12:55;;;;;;;6.40;4.35;;;;;;;;;;2016352;29;20036;-89
2022/09/10 05:13:55;;;;;;;5.18;3.95;;;;;;;;;;2015696;29;20043;-89
2022/09/10 05:14:56;;;;;;;4.63;3.63;;;;;;;;;;2008135;29;20037;-88
2022/09/10 05:15:59;;;;;;;5.07;4.10;;;;;;;;;;2023029;29;20021;-89
2022/09/10 05:16:59;;;;;;;5.82;3.92;;;;;;;;;;2030517;29;20035;-88
2022/09/10 05:18:01;;;;;;;6.40;4.07;;;;;;;;;;2015223;29;20048;-89
2022/09/10 05:19:01;;;;;;;8.25;4.50;;;;;;;;;;2015454;29;20045;-88
2022/09/10 05:20:04;;;;;;;8.73;4.20;;;;;;;;;;2015195;29;20570;-87
2022/09/10 05:21:05;;;;;;;5.70;3.67;;;;;;;;;;2015676;29;20043;-88
2022/09/10 05:22:06;;;;;;;7.95;3.88;;;;;;;;;;2015323;29;20033;-88
2022/09/10 05:23:07;;;;;;;5.43;4.10;;;;;;;;;;1677397;29;10049178;-88
2022/09/10 05:24:07;;;;;;;7.15;4.35;;;;;;;;;;2023747;29;20060;-88
2022/09/10 05:25:08;;;;;;;6.07;3.90;;;;;;;;;;2023011;29;20025;-88
2022/09/10 05:26:09;;;;;;;5.75;4.18;;;;;;;;;;2023712;29;20040;-88
2022/09/10 05:27:09;;;;;;;5.32;4.03;;;;;;;;;;2024575;29;20060;-87
2022/09/10 05:28:10;;;;;;;5.53;3.80;;;;;;;;;;2016976;29;20040;-87
2022/09/10 05:29:11;;;;;;;5.13;3.90;;;;;;;;;;2008297;29;20049;-87
2022/09/10 05:30:11;;;;;;;4.38;3.85;;;;;;;;;;2015278;29;20048;-87
2022/09/10 05:31:12;;;;;;;5.25;4.00;;;;;;;;;;2015182;29;20029;-88
2022/09/10 05:32:13;;;;;;;7.05;3.85;;;;;;;;;;2015265;29;20036;-88
2022/09/10 05:33:14;;;;;;;8.40;4.15;;;;;;;;;;2023629;29;20138;-86
2022/09/10 05:34:14;;;;;;;10.88;4.47;;;;;;;;;;2015334;29;20037;-86
2022/09/10 05:35:15;;;;;;;8.07;4.75;;;;;;;;;;1663102;29;10473938;-86
2022/09/10 05:36:16;;;;;;;6.97;4.43;;;;;;;;;;2014880;29;20046;-87
2022/09/10 05:37:17;;;;;;;6.03;4.43;;;;;;;;;;2014817;29;20033;-88
2022/09/10 05:38:18;;;;;;;7.95;4.80;;;;;;;;;;2023044;29;20033;-87
2022/09/10 05:39:19;;;;;;;6.60;4.50;;;;;;;;;;2023460;29;20064;-87
2022/09/10 05:40:20;;;;;;;7.78;4.43;;;;;;;;;;2015120;29;20030;-87
2022/09/10 05:41:20;;;;;;;9.80;4.90;;;;;;;;;;2015382;29;20041;-87
2022/09/10 05:42:21;;;;;;;5.05;4.55;;;;;;;;;;1666436;29;10377992;-88
2022/09/10 05:43:21;;;;;;;7.80;4.68;;;;;;;;;;2015253;29;20082;-88
2022/09/10 05:44:21;;;;;;;8.02;5.05;;;;;;;;;;2023614;29;20067;-87
2022/09/10 05:45:22;;;;;;;8.48;5.47;;;;;;;;;;2023548;29;20057;-88
2022/09/10 05:46:24;;;;;;;6.82;4.75;;;;;;;;;;2023804;29;20107;-87
2022/09/10 05:47:25;;;;;;;6.40;4.75;;;;;;;;;;2023791;29;20062;-87
2022/09/10 05:48:26;;;;;;;6.75;5.15;;;;;;;;;;2015099;29;20519;-89
2022/09/10 05:49:26;;;;;;;6.93;5.40;;;;;;;;;;2015265;29;20029;-86
2022/09/10 05:50:27;;;;;;;9.23;5.53;;;;;;;;;;2015231;29;20060;-86
2022/09/10 05:51:29;;;;;;;8.10;5.70;;;;;;;;;;2022633;29;20060;-86
2022/09/10 05:52:31;;;;;;;10.23;6.30;;;;;;;;;;2023095;29;20044;-87
2022/09/10 05:53:32;;;;;;;7.63;5.82;;;;;;;;;;2024003;29;20037;-88
2022/09/10 05:54:32;;;;;;;9.98;6.15;;;;;;;;;;2015158;29;20025;-87
2022/09/10 05:55:33;;;;;;;9.40;6.07;;;;;;;;;;2023299;29;20486;-86
2022/09/10 05:56:34;;;;;;;8.77;5.63;;;;;;;;;;2016841;29;20542;-86
2022/09/10 05:57:34;;;;;;;6.45;5.22;;;;;;;;;;2008143;29;20239;-83
2022/09/10 05:58:34;;;;;;;7.45;5.50;;;;;;;;;;2015952;29;20455;-87
2022/09/10 05:59:35;;;;;;;7.95;4.95;;;;;;;;;;2024082;29;20423;-88
2022/09/10 06:00:35;;;;;;;9.57;5.13;;;;;;;;;;2023488;29;20322;-88
2022/09/10 06:01:36;;;;;;;5.85;4.40;;;;;;;;;;2023157;29;20480;-86
2022/09/10 06:02:37;;;;;;;8.70;5.20;;;;;;;;;;2023109;29;20066;-87
2022/09/10 06:03:39;;;;;;;6.65;5.03;;;;;;;;;;2023146;29;20059;-88
2022/09/10 06:04:39;;;;;;;6.95;4.40;;;;;;;;;;2024402;29;20077;-86
2022/09/10 06:05:40;;;;;;;7.38;4.47;;;;;;;;;;2025310;29;20363;-88
2022/09/10 06:06:40;;;;;;;9.60;4.80;;;;;;;;;;2025388;29;20036;-87
2022/09/10 06:07:40;;;;;;;6.15;4.20;;;;;;;;;;2016519;29;20188;-86
2022/09/10 06:08:41;;;;;;;7.90;4.50;;;;;;;;;;2016801;29;20179;-88
2022/09/10 06:09:41;;;;;;;5.50;4.57;;;;;;;;;;2017039;29;20056;-88
2022/09/10 06:10:42;;;;;;;5.03;4.25;;;;;;;;;;2009179;29;20029;-87
2022/09/10 06:11:43;;;;;;;7.20;4.47;;;;;;;;;;2009152;29;20048;-87
2022/09/10 06:12:46;;;;;;;6.05;4.47;;;;;;;;;;2016919;29;20480;-86
2022/09/10 06:13:47;;;;;;;6.20;4.50;;;;;;;;;;2024452;29;20059;-87
2022/09/10 06:14:48;;;;;;;6.35;4.10;;;;;;;;;;2024404;29;20044;-87
2022/09/10 06:15:48;;;;;;;5.78;4.00;;;;;;;;;;2009210;29;20029;-87
2022/09/10 06:16:50;;;;;;;8.68;4.47;;;;;;;;;;2016985;29;20033;-87